Time;durP1;ratioP1;P1;durP2;ratioP2;P2;SDS_P1;SDS_P2;PMS_P1;PMS_P2;Temp;Humidity;BMP_temperature;BMP_pressure;BME280_temperature;BME280_humidity;BME280_pressure;Samples;Min_cycle;Max_cycle;Signal;HPM_P1;HPM_P2
2022/06/26 00:01:41;;;;;;;12.20;9.43;;;;;;;17.67;84.16;101094.75;4991394;28;20041;-72
2022/06/26 00:04:06;;;;;;;12.15;9.75;;;;;;;17.68;83.80;101105.63;5006110;28;20049;-71
2022/06/26 00:06:31;;;;;;;13.68;9.88;;;;;;;17.68;83.68;101099.25;5006352;28;20030;-71
2022/06/26 00:08:57;;;;;;;11.25;8.38;;;;;;;17.68;83.63;101097.38;4993392;28;20043;-71
2022/06/26 00:11:22;;;;;;;10.88;9.05;;;;;;;17.65;83.95;101094.91;5008667;28;20619;-71
2022/06/26 00:13:48;;;;;;;14.48;9.75;;;;;;;17.64;83.67;101092.31;4990811;28;20077;-71
2022/06/26 00:16:14;;;;;;;11.55;9.20;;;;;;;17.63;83.99;101102.47;5008114;28;20500;-71
2022/06/26 00:18:41;;;;;;;11.43;9.70;;;;;;;17.64;84.09;101112.44;4991399;28;20034;-71
2022/06/26 00:21:06;;;;;;;16.88;9.95;;;;;;;17.62;84.36;101103.47;4990902;28;20044;-71
2022/06/26 00:23:32;;;;;;;15.73;10.75;;;;;;;17.59;84.32;101118.41;5002401;28;20025;-71
2022/06/26 00:25:57;;;;;;;13.88;10.02;;;;;;;17.57;84.13;101108.53;5008295;28;20034;-71
2022/06/26 00:28:23;;;;;;;11.02;9.45;;;;;;;17.56;83.84;101118.69;4993037;28;20117;-71
2022/06/26 00:30:48;;;;;;;12.00;9.30;;;;;;;17.54;83.84;101117.13;4990365;28;20405;-71
2022/06/26 00:33:14;;;;;;;15.45;10.18;;;;;;;17.51;84.22;101117.41;5013368;28;20026;-72
2022/06/26 00:35:40;;;;;;;17.08;9.32;;;;;;;17.48;83.76;101120.44;4990252;28;20117;-71
2022/06/26 00:38:06;;;;;;;14.32;10.35;;;;;;;17.46;83.90;101128.00;5004839;28;20062;-72
2022/06/26 00:40:31;;;;;;;16.83;11.15;;;;;;;17.39;85.09;101129.59;4990722;28;20078;-72
2022/06/26 00:42:57;;;;;;;11.57;9.88;;;;;;;17.38;83.82;101131.47;5000341;28;20038;-72
2022/06/26 00:45:22;;;;;;;15.80;10.48;;;;;;;17.34;84.79;101135.53;5009663;28;20022;-72
2022/06/26 00:47:47;;;;;;;14.82;10.45;;;;;;;17.34;84.04;101139.16;4997509;28;20049;-72
2022/06/26 00:50:13;;;;;;;14.18;10.57;;;;;;;17.29;84.51;101143.38;5003566;28;20068;-72
2022/06/26 00:52:39;;;;;;;15.52;11.30;;;;;;;17.24;84.49;101140.19;5009357;28;20512;-72
2022/06/26 00:55:06;;;;;;;15.50;10.65;;;;;;;17.20;85.14;101147.00;4996371;28;20050;-72
2022/06/26 00:57:33;;;;;;;12.35;10.88;;;;;;;17.17;84.79;101150.94;4999966;28;20415;-71
2022/06/26 00:59:59;;;;;;;18.92;10.68;;;;;;;17.13;85.57;101157.72;4988640;28;20418;-72
2022/06/26 01:02:24;;;;;;;16.42;10.90;;;;;;;17.09;86.37;101154.41;4993256;28;20042;-72
2022/06/26 01:04:50;;;;;;;13.73;11.05;;;;;;;17.12;85.54;101156.00;4998694;28;20387;-72
2022/06/26 01:07:15;;;;;;;14.65;10.48;;;;;;;17.15;85.72;101157.56;4993809;28;20084;-72
2022/06/26 01:09:41;;;;;;;14.68;11.45;;;;;;;17.14;86.08;101155.84;4977271;28;20110;-72
2022/06/26 01:12:07;;;;;;;15.85;9.98;;;;;;;17.14;85.99;101159.47;4994244;28;20092;-72
2022/06/26 01:14:32;;;;;;;13.32;10.43;;;;;;;17.12;85.81;101157.88;5019184;28;20026;-72
2022/06/26 01:16:59;;;;;;;16.38;12.63;;;;;;;17.08;87.14;101160.06;5002018;28;20477;-72
2022/06/26 01:19:25;;;;;;;17.15;11.73;;;;;;;17.11;85.69;101156.97;5003874;28;20548;-71
2022/06/26 01:21:50;;;;;;;15.98;11.77;;;;;;;17.12;86.69;101166.13;4989314;28;20045;-72
2022/06/26 01:24:16;;;;;;;19.58;12.25;;;;;;;17.13;86.37;101174.22;4971909;28;20125;-72
2022/06/26 01:26:42;;;;;;;17.45;13.43;;;;;;;17.10;87.23;101171.75;4987010;28;20402;-72
2022/06/26 01:29:08;;;;;;;18.17;13.85;;;;;;;17.01;87.00;101176.22;4989142;28;20092;-72
2022/06/26 01:31:34;;;;;;;23.25;14.88;;;;;;;16.98;87.28;101165.56;5004124;28;20033;-71
2022/06/26 01:34:05;;;;;;;19.98;14.68;;;;;;;16.98;86.83;101181.19;5021409;28;20035;-71
2022/06/26 01:36:31;;;;;;;19.05;13.60;;;;;;;16.93;87.68;101178.88;4989606;28;20121;-71
2022/06/26 01:38:57;;;;;;;20.45;15.30;;;;;;;16.90;87.21;101179.16;4989143;28;20400;-72
2022/06/26 01:41:23;;;;;;;19.73;15.48;;;;;;;16.88;88.29;101174.78;5005518;28;20026;-71
2022/06/26 01:43:49;;;;;;;25.02;17.02;;;;;;;16.84;87.98;101174.22;4987030;28;20147;-73
2022/06/26 01:46:16;;;;;;;21.80;15.57;;;;;;;16.84;87.40;101176.97;5015675;28;20122;-72
2022/06/26 01:48:42;;;;;;;23.38;15.38;;;;;;;16.86;87.44;101185.06;4987459;28;20119;-71
2022/06/26 01:51:09;;;;;;;22.63;15.90;;;;;;;16.82;87.27;101181.72;5019656;28;20060;-71
2022/06/26 01:53:36;;;;;;;23.20;15.25;;;;;;;16.78;87.76;101169.28;4986846;28;20378;-71
2022/06/26 01:56:03;;;;;;;24.10;17.23;;;;;;;16.77;87.75;101171.16;5003998;28;20580;-72
2022/06/26 01:58:36;;;;;;;22.40;15.73;;;;;;;16.77;87.95;101173.06;5015173;28;20038;-71
2022/06/26 02:01:03;;;;;;;22.33;17.05;;;;;;;16.72;88.31;101164.38;5020768;28;20069;-72
2022/06/26 02:03:29;;;;;;;24.75;15.95;;;;;;;16.71;87.41;101163.47;5001988;28;20271;-71
2022/06/26 02:05:55;;;;;;;24.77;17.33;;;;;;;16.68;87.82;101158.25;5004564;28;20536;-71
2022/06/26 02:08:20;;;;;;;23.40;17.13;;;;;;;16.68;87.51;101162.88;4999187;28;20030;-72
2022/06/26 02:13:36;;;;;;;23.38;17.38;;;;;;;16.67;87.38;101155.66;4989257;28;20038;-72
2022/06/26 02:16:02;;;;;;;26.95;17.17;;;;;;;16.68;87.51;101151.91;5004222;28;20361;-71
2022/06/26 02:18:28;;;;;;;26.95;17.48;;;;;;;16.63;87.65;101144.09;5004801;28;20061;-71
2022/06/26 02:20:54;;;;;;;24.42;17.02;;;;;;;16.65;86.71;101142.09;4988616;28;20492;-71
2022/06/26 02:23:19;;;;;;;25.20;16.80;;;;;;;16.66;87.53;101142.94;5000328;28;20038;-71
2022/06/26 02:25:46;;;;;;;28.05;17.75;;;;;;;16.63;87.35;101144.09;5002911;28;20472;-71
2022/06/26 02:28:11;;;;;;;25.52;16.98;;;;;;;16.58;87.55;101133.53;4987472;28;20102;-71
2022/06/26 02:30:37;;;;;;;26.20;17.67;;;;;;;16.59;87.46;101146.25;5001783;28;20443;-71
2022/06/26 02:33:03;;;;;;;26.25;16.00;;;;;;;16.61;86.83;101143.38;4999150;28;20481;-72
2022/06/26 02:35:29;;;;;;;29.35;17.30;;;;;;;16.61;86.67;101150.75;5001578;28;20028;-71
2022/06/26 02:37:56;;;;;;;26.38;16.65;;;;;;;16.60;86.64;101155.38;5006311;28;20041;-71
2022/06/26 02:40:23;;;;;;;22.05;15.57;;;;;;;16.58;87.01;101160.13;4988694;28;20133;-71
2022/06/26 02:42:51;;;;;;;22.15;16.05;;;;;;;16.53;86.79;101157.81;5001536;28;20100;-71
2022/06/26 02:45:18;;;;;;;22.98;15.48;;;;;;;16.44;86.13;101171.53;4986393;28;20465;-71
2022/06/26 02:47:43;;;;;;;24.60;16.05;;;;;;;16.29;86.67;101179.28;5008203;28;20042;-71
2022/06/26 02:50:13;;;;;;;24.00;15.75;;;;;;;16.20;86.43;101175.50;5003143;28;20026;-71
2022/06/26 02:52:39;;;;;;;24.30;14.15;;;;;;;16.13;86.52;101174.31;4997234;28;20038;-71
2022/06/26 02:55:05;;;;;;;20.27;13.93;;;;;;;16.07;86.43;101191.34;4997641;28;20538;-71
2022/06/26 02:57:34;;;;;;;22.30;14.60;;;;;;;15.97;87.12;101180.34;5010441;28;20516;-71
2022/06/26 03:00:00;;;;;;;22.42;14.68;;;;;;;15.92;86.69;101187.25;4990999;28;20061;-71
2022/06/26 03:02:25;;;;;;;21.38;13.80;;;;;;;15.87;86.56;101197.75;5002635;28;20397;-71
2022/06/26 03:04:59;;;;;;;22.23;13.57;;;;;;;15.84;86.69;101198.03;4996555;28;20061;-71
2022/06/26 03:07:25;;;;;;;21.08;13.05;;;;;;;15.78;86.77;101197.56;5001151;28;20241;-71
2022/06/26 03:09:51;;;;;;;24.17;12.75;;;;;;;15.74;86.51;101196.09;4985613;28;20434;-71
2022/06/26 03:12:16;;;;;;;19.75;12.40;;;;;;;15.69;86.78;101189.28;5000421;28;20036;-71
2022/06/26 03:14:41;;;;;;;22.27;12.25;;;;;;;15.68;86.89;101201.28;5006643;28;20124;-71
2022/06/26 03:17:07;;;;;;;19.38;12.35;;;;;;;15.62;86.83;101205.41;4999188;28;20409;-71
2022/06/26 03:19:33;;;;;;;25.25;14.40;;;;;;;15.60;87.10;101206.53;5006434;28;20026;-70
2022/06/26 03:21:59;;;;;;;20.75;12.75;;;;;;;15.55;87.01;101206.94;5006034;28;20057;-71
2022/06/26 03:24:24;;;;;;;19.15;11.15;;;;;;;15.56;86.42;101214.16;5011060;28;20050;-72
2022/06/26 03:26:50;;;;;;;18.17;11.15;;;;;;;15.50;86.72;101223.78;5001539;28;20030;-72
2022/06/26 03:29:16;;;;;;;18.70;10.93;;;;;;;15.50;86.47;101229.28;5003572;28;20061;-72
2022/06/26 03:31:41;;;;;;;16.55;9.95;;;;;;;15.43;87.04;101225.31;4989969;28;20034;-71
2022/06/26 03:34:10;;;;;;;20.55;10.88;;;;;;;15.37;87.34;101219.50;5038980;28;20117;-71
2022/06/26 03:36:36;;;;;;;21.00;10.65;;;;;;;15.34;87.49;101217.00;4990784;28;20462;-71
2022/06/26 03:39:03;;;;;;;16.73;11.30;;;;;;;15.32;87.09;101231.72;4997084;28;20410;-71
2022/06/26 03:41:32;;;;;;;21.23;11.50;;;;;;;15.29;87.61;101240.25;4989052;28;20042;-71
2022/06/26 03:43:57;;;;;;;16.92;10.10;;;;;;;15.28;86.35;101238.47;4992339;28;20619;-72
2022/06/26 03:46:22;;;;;;;16.58;9.40;;;;;;;15.29;86.79;101247.56;5007426;28;20052;-71
2022/06/26 03:48:48;;;;;;;21.70;11.88;;;;;;;15.26;87.62;101254.19;5006202;28;20507;-71
2022/06/26 03:51:14;;;;;;;16.58;10.73;;;;;;;15.24;87.03;101258.06;5007781;28;20407;-72
2022/06/26 03:53:39;;;;;;;17.20;10.30;;;;;;;15.20;87.23;101252.00;4988391;28;20050;-71
2022/06/26 03:56:05;;;;;;;16.48;10.20;;;;;;;15.16;87.46;101249.66;4986952;28;20065;-71
2022/06/26 03:58:31;;;;;;;15.32;9.85;;;;;;;15.17;87.42;101260.47;4994142;28;20030;-71
2022/06/26 04:00:57;;;;;;;18.77;10.65;;;;;;;15.17;87.35;101260.47;5006749;28;20033;-72
2022/06/26 04:03:23;;;;;;;17.00;10.38;;;;;;;15.16;87.78;101250.50;5004862;28;20136;-72
2022/06/26 04:05:48;;;;;;;15.23;10.02;;;;;;;15.16;87.58;101257.88;4993461;28;20038;-71
2022/06/26 04:08:14;;;;;;;14.45;9.27;;;;;;;15.21;86.98;101248.25;5004070;28;20040;-71
2022/06/26 04:10:42;;;;;;;19.00;9.95;;;;;;;15.19;87.86;101236.53;5005390;28;20030;-72
2022/06/26 04:13:24;;;;;;;20.10;10.10;;;;;;;15.19;87.15;101244.75;4988539;28;20042;-71
2022/06/26 04:15:49;;;;;;;15.93;9.43;;;;;;;15.21;87.24;101250.97;4989246;28;20112;-71
2022/06/26 04:18:15;;;;;;;12.68;9.10;;;;;;;15.22;86.67;101254.59;4989157;28;20034;-72
2022/06/26 04:20:40;;;;;;;13.15;8.32;;;;;;;15.20;86.31;101251.09;4974374;28;20033;-71
2022/06/26 04:23:09;;;;;;;12.43;8.20;;;;;;;15.14;87.30;101255.22;5005543;28;20026;-71
2022/06/26 04:25:36;;;;;;;14.88;8.65;;;;;;;15.17;86.97;101260.47;4989120;28;20481;-71
2022/06/26 04:28:03;;;;;;;14.30;8.45;;;;;;;15.21;86.65;101261.94;5002931;28;20065;-71
2022/06/26 04:30:32;;;;;;;14.85;8.77;;;;;;;15.26;86.51;101267.91;5006163;28;20125;-72
2022/06/26 04:32:58;;;;;;;15.15;7.93;;;;;;;15.30;85.61;101271.25;5002224;28;20037;-71
2022/06/26 04:35:24;;;;;;;13.57;8.02;;;;;;;15.31;86.37;101286.69;5021740;28;20476;-71
2022/06/26 04:37:50;;;;;;;15.20;8.27;;;;;;;15.31;86.07;101282.09;5007462;28;20473;-71
2022/06/26 04:40:18;;;;;;;15.20;8.40;;;;;;;15.30;86.77;101293.19;5004115;28;20030;-71
2022/06/26 04:42:44;;;;;;;15.18;7.55;;;;;;;15.31;86.01;101295.78;5004948;28;20044;-72
2022/06/26 04:45:11;;;;;;;12.88;8.07;;;;;;;15.26;87.01;101299.94;5023763;28;20034;-71
2022/06/26 04:47:37;;;;;;;13.38;7.75;;;;;;;15.21;87.55;101305.81;5007261;28;20037;-71
2022/06/26 04:50:10;;;;;;;14.02;8.32;;;;;;;15.28;87.17;101311.63;5006980;28;20036;-71
2022/06/26 04:52:35;;;;;;;14.43;6.97;;;;;;;15.43;86.87;101314.94;5008158;28;20423;-71
2022/06/26 04:55:01;;;;;;;17.35;7.90;;;;;;;15.54;86.63;101315.75;4993558;28;20121;-71
2022/06/26 04:57:27;;;;;;;15.43;8.10;;;;;;;15.58;87.18;101316.38;5006178;28;20125;-71
2022/06/26 04:59:53;;;;;;;12.85;7.75;;;;;;;15.66;86.09;101315.72;5006845;28;20129;-71
2022/06/26 05:02:19;;;;;;;14.57;8.00;;;;;;;15.72;86.28;101309.72;5005245;28;20113;-71
2022/06/26 05:05:14;;;;;;;12.68;7.40;;;;;;;15.85;85.64;101306.78;4991472;28;20058;-71
2022/06/26 05:08:02;;;;;;;20.98;8.63;;;;;;;15.87;86.17;101316.63;4997758;28;20053;-71
2022/06/26 05:10:29;;;;;;;12.48;7.85;;;;;;;15.93;86.16;101310.59;5003580;28;20493;-71
2022/06/26 05:12:54;;;;;;;13.02;8.25;;;;;;;16.08;85.67;101314.72;4986565;28;20038;-71
2022/06/26 05:15:39;;;;;;;14.88;8.13;;;;;;;16.06;84.81;101319.47;4992674;28;20041;-71
2022/06/26 05:18:08;;;;;;;12.40;7.78;;;;;;;16.03;84.56;101319.75;4988540;28;20030;-71
2022/06/26 05:20:34;;;;;;;14.65;8.35;;;;;;;16.13;84.93;101325.28;4987570;28;20512;-70
2022/06/26 05:23:03;;;;;;;19.17;8.38;;;;;;;16.16;84.40;101322.28;5008638;28;20058;-71
2022/06/26 05:25:29;;;;;;;13.02;7.85;;;;;;;16.18;84.22;101309.31;5018228;28;20041;-71
2022/06/26 05:27:54;;;;;;;11.63;7.00;;;;;;;16.17;84.44;101321.28;5011243;28;20057;-71
2022/06/26 05:30:21;;;;;;;15.93;8.20;;;;;;;16.26;83.85;101314.09;5007132;28;20037;-71
2022/06/26 05:32:47;;;;;;;16.90;8.02;;;;;;;16.35;83.63;101312.41;5007011;28;20046;-72
2022/06/26 05:35:16;;;;;;;12.23;7.53;;;;;;;16.33;83.07;101310.69;4996287;28;20030;-71
2022/06/26 05:37:42;;;;;;;13.20;7.40;;;;;;;16.29;82.89;101302.84;4987990;28;20061;-71
2022/06/26 05:40:08;;;;;;;14.43;7.35;;;;;;;16.38;83.50;101313.00;5003350;28;20373;-71
2022/06/26 05:42:37;;;;;;;17.70;8.02;;;;;;;16.43;83.31;101321.72;5015037;28;20385;-72
2022/06/26 05:45:03;;;;;;;17.75;8.00;;;;;;;16.39;84.26;101327.63;5008846;28;20026;-72
2022/06/26 05:47:29;;;;;;;14.52;7.25;;;;;;;16.46;83.20;101332.44;5001943;28;20056;-71
2022/06/26 05:50:13;;;;;;;14.60;7.13;;;;;;;16.48;82.91;101344.13;5006433;28;20084;-71
2022/06/26 05:52:51;;;;;;;13.82;6.85;;;;;;;16.54;82.97;101345.47;5008093;28;20045;-72
2022/06/26 05:55:24;;;;;;;12.10;7.35;;;;;;;16.55;83.26;101350.84;4990515;28;20377;-71
2022/06/26 05:58:02;;;;;;;16.25;7.63;;;;;;;16.54;82.31;101356.44;5003209;28;20041;-71
2022/06/26 06:00:51;;;;;;;16.98;8.35;;;;;;;16.63;82.89;101366.63;4993469;28;20100;-71
2022/06/26 06:03:17;;;;;;;14.05;7.43;;;;;;;16.71;83.08;101354.94;5019947;28;20037;-71
2022/06/26 06:05:42;;;;;;;15.35;7.70;;;;;;;16.71;83.00;101352.19;5001307;28;20440;-71
2022/06/26 06:08:09;;;;;;;20.30;9.10;;;;;;;16.73;82.59;101367.56;5005830;28;20400;-72
2022/06/26 06:10:36;;;;;;;18.70;8.07;;;;;;;16.75;82.50;101365.56;5002198;28;20028;-70
2022/06/26 06:13:03;;;;;;;16.65;7.70;;;;;;;16.78;83.46;101370.75;5003189;28;20041;-71
2022/06/26 06:15:28;;;;;;;16.30;7.80;;;;;;;16.87;82.46;101357.19;5004947;28;20080;-72
2022/06/26 06:17:56;;;;;;;17.38;7.63;;;;;;;16.94;82.04;101361.13;5008808;28;20046;-71
2022/06/26 06:20:25;;;;;;;17.55;8.52;;;;;;;17.01;82.15;101356.81;4990383;28;20022;-70
2022/06/26 06:22:54;;;;;;;14.40;7.38;;;;;;;17.13;81.25;101365.81;5006390;28;20025;-71
2022/06/26 06:25:22;;;;;;;15.85;7.05;;;;;;;17.41;81.28;101359.50;5016868;28;20029;-71
2022/06/26 06:27:48;;;;;;;17.17;7.65;;;;;;;17.53;79.76;101351.97;4987062;28;20030;-71
2022/06/26 06:30:17;;;;;;;13.50;7.13;;;;;;;17.58;81.32;101358.81;5003912;28;20022;-71
2022/06/26 06:32:45;;;;;;;14.90;7.22;;;;;;;17.70;81.01;101361.41;4999613;28;20117;-71
2022/06/26 06:35:20;;;;;;;14.93;6.80;;;;;;;17.69;78.40;101362.41;4994516;28;20390;-71
2022/06/26 06:37:46;;;;;;;13.18;7.13;;;;;;;17.86;80.33;101378.25;4992088;28;20084;-72
2022/06/26 06:40:13;;;;;;;16.63;7.10;;;;;;;17.93;80.70;101379.38;5001894;28;20096;-71
2022/06/26 06:42:41;;;;;;;13.68;6.53;;;;;;;17.95;77.67;101382.88;5003196;28;20112;-72
2022/06/26 06:45:11;;;;;;;12.20;6.63;;;;;;;18.15;78.37;101383.72;5004724;28;20053;-71
2022/06/26 06:47:57;;;;;;;11.05;6.32;;;;;;;18.19;76.56;101400.81;4999681;28;20488;-72
2022/06/26 06:50:38;;;;;;;13.13;6.72;;;;;;;18.20;77.54;101408.06;5003132;28;20041;-71
2022/06/26 06:53:04;;;;;;;14.48;6.68;;;;;;;18.28;77.40;101410.97;5004890;28;20026;-71
2022/06/26 06:55:30;;;;;;;13.70;7.15;;;;;;;18.18;77.00;101419.22;5005142;28;20362;-72
2022/06/26 06:57:57;;;;;;;12.20;6.72;;;;;;;18.20;78.59;101424.59;4994976;28;20549;-71
2022/06/26 07:00:23;;;;;;;13.93;6.90;;;;;;;18.39;77.78;101435.59;5006248;28;20233;-71
2022/06/26 07:02:49;;;;;;;9.93;6.65;;;;;;;18.50;77.81;101434.53;5004867;28;20405;-71
2022/06/26 07:05:19;;;;;;;11.73;6.43;;;;;;;18.63;78.09;101431.47;4994732;28;20058;-71
2022/06/26 07:07:44;;;;;;;14.75;6.47;;;;;;;18.63;76.63;101442.50;4986114;28;20401;-71
2022/06/26 07:10:09;;;;;;;11.20;6.32;;;;;;;18.84;77.08;101449.59;4985592;28;20123;-72
2022/06/26 07:12:35;;;;;;;14.15;7.32;;;;;;;19.00;77.27;101446.16;5000996;28;20109;-71
2022/06/26 07:15:00;;;;;;;11.15;6.18;;;;;;;19.06;75.25;101455.72;4986123;28;20030;-71
2022/06/26 07:17:26;;;;;;;13.07;7.45;;;;;;;18.98;72.96;101453.75;5001901;28;20061;-72
2022/06/26 07:19:54;;;;;;;13.02;6.70;;;;;;;18.92;75.12;101454.31;5001948;28;20040;-71
2022/06/26 07:22:19;;;;;;;10.75;6.60;;;;;;;18.94;75.34;101452.31;5002318;28;20075;-71
2022/06/26 07:24:46;;;;;;;11.68;6.07;;;;;;;18.93;74.21;101456.09;4985565;28;20038;-71
2022/06/26 07:27:25;;;;;;;13.48;6.88;;;;;;;18.97;72.76;101440.09;5001011;28;20124;-71
2022/06/26 07:29:51;;;;;;;11.23;5.70;;;;;;;19.09;74.17;101444.41;5001853;28;20095;-71
2022/06/26 07:32:16;;;;;;;15.75;6.82;;;;;;;19.18;74.50;101449.00;4989385;28;20465;-71
2022/06/26 07:34:42;;;;;;;11.13;6.00;;;;;;;19.40;73.60;101458.78;4999113;28;20375;-71
2022/06/26 07:37:07;;;;;;;9.90;6.65;;;;;;;19.51;72.47;101468.72;4985704;28;20461;-71
2022/06/26 07:39:32;;;;;;;9.65;6.00;;;;;;;19.53;73.62;101466.66;4987220;28;20053;-71
2022/06/26 07:41:59;;;;;;;8.95;5.85;;;;;;;19.68;74.39;101461.53;5001560;28;20038;-71
2022/06/26 07:44:29;;;;;;;9.45;5.63;;;;;;;19.72;74.27;101463.81;4985765;28;20027;-72
2022/06/26 07:46:54;;;;;;;10.50;5.40;;;;;;;19.70;72.12;101462.25;5002683;28;20145;-72
2022/06/26 07:49:42;;;;;;;9.50;5.00;;;;;;;19.64;71.58;101461.00;4984245;28;20367;-72
2022/06/26 07:52:08;;;;;;;8.57;5.00;;;;;;;19.57;72.25;101468.97;5002264;28;20034;-71
2022/06/26 07:54:33;;;;;;;11.45;5.78;;;;;;;19.52;72.73;101465.81;4992525;28;20021;-71
2022/06/26 07:56:59;;;;;;;7.80;5.32;;;;;;;19.47;71.59;101462.63;5002649;28;20041;-71
2022/06/26 07:59:24;;;;;;;7.47;5.32;;;;;;;19.28;72.76;101462.75;5005458;28;20033;-71
2022/06/26 08:01:50;;;;;;;10.35;5.72;;;;;;;19.35;73.55;101473.03;4998457;28;20049;-71
2022/06/26 08:04:15;;;;;;;7.85;5.22;;;;;;;19.40;72.71;101468.91;5004942;28;20078;-71
2022/06/26 08:06:40;;;;;;;8.57;5.22;;;;;;;19.48;72.06;101477.31;5017590;28;20125;-71
2022/06/26 08:09:06;;;;;;;6.70;5.47;;;;;;;19.51;72.17;101483.41;4999901;28;20034;-71
2022/06/26 08:11:33;;;;;;;8.35;4.82;;;;;;;19.57;70.92;101487.44;5020429;28;20080;-71
2022/06/26 08:13:59;;;;;;;9.43;5.45;;;;;;;19.44;72.05;101487.78;5002442;28;20096;-71
2022/06/26 08:16:24;;;;;;;10.05;5.50;;;;;;;19.44;71.90;101484.16;5008282;28;20501;-71
2022/06/26 08:18:50;;;;;;;11.73;6.30;;;;;;;19.54;71.45;101488.63;5008500;28;20235;-71
2022/06/26 08:23:59;;;;;;;11.68;5.97;;;;;;;19.33;70.80;101488.84;5017248;28;20042;-71
2022/06/26 08:26:25;;;;;;;10.15;5.53;;;;;;;19.28;72.36;101484.81;4999404;28;20116;-71
2022/06/26 08:28:50;;;;;;;11.15;5.38;;;;;;;19.31;71.07;101487.28;5007227;28;20041;-71
2022/06/26 08:31:16;;;;;;;8.13;5.57;;;;;;;19.26;72.27;101490.50;5009019;28;20048;-71
2022/06/26 08:33:41;;;;;;;7.13;5.30;;;;;;;19.15;71.72;101479.66;5008007;28;20393;-71
2022/06/26 08:36:07;;;;;;;8.70;5.38;;;;;;;19.17;72.02;101479.50;4996374;28;20092;-71
2022/06/26 08:38:33;;;;;;;7.78;4.93;;;;;;;19.18;72.13;101478.47;5006194;28;20400;-71
2022/06/26 08:40:59;;;;;;;7.65;5.07;;;;;;;19.13;70.22;101476.19;5003768;28;20487;-71
2022/06/26 08:43:26;;;;;;;6.97;5.00;;;;;;;19.16;71.97;101475.84;5005094;28;20049;-71
2022/06/26 08:45:54;;;;;;;10.88;5.07;;;;;;;19.40;72.31;101483.63;5009270;28;20464;-71
2022/06/26 08:48:24;;;;;;;10.30;5.05;;;;;;;19.43;70.28;101498.97;5006355;28;20041;-71
2022/06/26 08:50:49;;;;;;;10.23;5.63;;;;;;;19.37;70.88;101498.56;5005494;28;20362;-71
2022/06/26 08:53:16;;;;;;;6.38;5.22;;;;;;;19.31;69.58;101503.84;5007707;28;20048;-71
2022/06/26 08:55:42;;;;;;;6.70;5.10;;;;;;;19.36;70.42;101491.31;4998854;28;20511;-70
2022/06/26 08:58:08;;;;;;;8.57;4.97;;;;;;;19.48;71.17;101505.78;4996167;28;20591;-71
2022/06/26 09:00:33;;;;;;;6.13;4.85;;;;;;;19.53;69.86;101499.78;5007936;28;20034;-71
2022/06/26 09:02:59;;;;;;;5.90;4.80;;;;;;;19.64;71.71;101494.13;5008189;28;20065;-71
2022/06/26 09:05:24;;;;;;;6.78;4.80;;;;;;;19.64;69.22;101494.13;5000705;28;20037;-71
2022/06/26 09:07:52;;;;;;;7.63;4.40;;;;;;;19.67;69.30;101496.53;5007753;28;20058;-71
2022/06/26 09:10:19;;;;;;;8.02;4.25;;;;;;;19.73;69.92;101498.72;5005937;28;20123;-71
2022/06/26 09:12:56;;;;;;;8.00;4.30;;;;;;;19.85;69.92;101494.69;5000164;28;20038;-71
2022/06/26 09:15:23;;;;;;;7.07;4.35;;;;;;;19.91;68.61;101490.47;5007905;28;20038;-70
2022/06/26 09:18:01;;;;;;;6.03;4.55;;;;;;;19.98;69.73;101498.97;5000056;28;20580;-71
2022/06/26 09:20:28;;;;;;;9.80;4.40;;;;;;;19.98;67.90;101497.06;5006096;28;20044;-71
2022/06/26 09:22:57;;;;;;;8.98;4.53;;;;;;;20.00;69.36;101492.25;5008082;28;20050;-71
2022/06/26 09:25:34;;;;;;;7.63;4.65;;;;;;;19.98;69.59;101488.78;5006059;28;20073;-71
2022/06/26 09:28:12;;;;;;;6.55;4.50;;;;;;;20.05;69.53;101503.72;5004905;28;20493;-71
2022/06/26 09:30:56;;;;;;;6.38;4.45;;;;;;;20.07;69.74;101501.66;5005732;28;20041;-71
2022/06/26 09:33:26;;;;;;;5.97;4.30;;;;;;;20.12;68.51;101503.97;5011760;28;20069;-71
2022/06/26 09:35:53;;;;;;;7.30;4.47;;;;;;;20.29;69.09;101508.63;5011633;28;20070;-71
2022/06/26 09:38:25;;;;;;;8.15;4.28;;;;;;;20.36;68.66;101511.59;5007272;28;20429;-71
2022/06/26 09:40:52;;;;;;;;;;;;;;;20.41;69.42;101500.94;4988936;28;20510;-71
2022/06/26 09:43:44;;;;;;;8.60;4.90;;;;;;;20.37;68.42;101494.84;4987613;28;19917;-71
2022/06/26 09:46:14;;;;;;;6.63;4.43;;;;;;;20.34;67.17;101503.47;4988421;28;20517;-71
2022/06/26 09:48:41;;;;;;;10.25;4.13;;;;;;;20.40;67.17;101507.50;5000367;28;20367;-70
2022/06/26 09:51:09;;;;;;;5.88;3.47;;;;;;;20.32;65.25;101501.91;5006288;28;20562;-70
2022/06/26 09:53:35;;;;;;;5.82;4.35;;;;;;;20.28;68.18;101509.63;5003949;28;20045;-71
2022/06/26 09:56:01;;;;;;;8.18;3.90;;;;;;;20.29;66.95;101507.75;5002454;28;20022;-71
2022/06/26 09:58:27;;;;;;;5.38;3.80;;;;;;;20.43;68.09;101512.72;5005744;28;20048;-71
2022/06/26 10:06:26;;;;;;;8.80;3.80;;;;;;;20.74;65.86;101523.38;4988023;28;20050;-71
2022/06/26 10:08:53;;;;;;;4.78;3.20;;;;;;;20.83;64.74;101523.25;4988183;28;20104;-71
2022/06/26 10:11:21;;;;;;;4.93;3.80;;;;;;;20.98;65.44;101525.44;4969905;28;20049;-71
2022/06/26 10:13:47;;;;;;;6.00;3.53;;;;;;;20.85;65.75;101518.44;5017669;28;20038;-70
2022/06/26 10:16:31;;;;;;;6.22;2.78;;;;;;;21.00;65.37;101529.78;5005334;28;20543;-71
2022/06/26 10:19:28;;;;;;;6.35;2.78;;;;;;;21.11;64.81;101539.72;4989744;28;20121;-71
2022/06/26 10:21:54;;;;;;;5.43;2.80;;;;;;;20.85;62.22;101542.50;4989607;28;20070;-71
2022/06/26 10:24:19;;;;;;;5.15;2.90;;;;;;;20.83;62.89;101547.28;4998560;28;20045;-71
2022/06/26 10:26:57;;;;;;;4.68;3.13;;;;;;;20.79;64.31;101545.88;4984597;28;20033;-72
2022/06/26 10:29:40;;;;;;;4.60;2.95;;;;;;;20.93;65.50;101541.66;4987302;28;20038;-71
2022/06/26 10:32:07;;;;;;;5.57;2.63;;;;;;;21.12;62.82;101527.59;4998662;28;20033;-71
2022/06/26 10:34:34;;;;;;;4.43;2.97;;;;;;;21.33;64.27;101530.88;5006144;28;20045;-71
2022/06/26 10:37:03;;;;;;;4.80;3.03;;;;;;;21.54;63.97;101544.34;5006699;28;20025;-71
2022/06/26 10:39:38;;;;;;;4.43;2.80;;;;;;;21.65;65.15;101537.63;4998054;28;20531;-71
2022/06/26 10:45:00;;;;;;;2.90;2.25;;;;;;;21.72;61.44;101541.44;4986917;28;20485;-70
2022/06/26 10:47:39;;;;;;;6.22;3.25;;;;;;;21.74;63.16;101536.63;4987902;28;20049;-71
2022/06/26 10:50:05;;;;;;;15.30;3.70;;;;;;;21.97;62.41;101528.56;5010783;28;20029;-70
2022/06/26 10:52:31;;;;;;;8.60;3.40;;;;;;;22.32;63.06;101532.13;5007292;28;20125;-71
2022/06/26 10:55:00;;;;;;;6.65;3.22;;;;;;;22.43;59.77;101529.03;5005134;28;20408;-71
2022/06/26 10:57:37;;;;;;;5.18;3.03;;;;;;;22.61;62.59;101538.03;5000698;28;20069;-71
2022/06/26 11:00:08;;;;;;;5.18;3.03;;;;;;;22.61;60.04;101532.47;4987332;28;20797;-71
2022/06/26 11:02:39;;;;;;;4.70;3.30;;;;;;;22.67;59.42;101534.59;4987433;28;20666;-70
2022/06/26 11:05:07;;;;;;;7.20;2.80;;;;;;;22.63;54.89;101538.75;5001222;28;20050;-71
2022/06/26 11:07:45;;;;;;;4.47;2.38;;;;;;;22.53;55.67;101545.50;4987406;28;20516;-71
2022/06/26 11:10:22;;;;;;;6.78;2.40;;;;;;;22.40;54.85;101535.78;4984572;28;20070;-71
2022/06/26 11:12:52;;;;;;;6.03;2.70;;;;;;;22.59;60.01;101533.72;4986309;28;20056;-70
2022/06/26 11:15:32;;;;;;;6.68;2.58;;;;;;;22.99;59.30;101529.19;4986696;28;20212;-71
2022/06/26 11:18:03;;;;;;;7.32;2.80;;;;;;;23.23;58.09;101520.84;4987134;28;20093;-71
2022/06/26 11:21:01;;;;;;;9.17;3.13;;;;;;;23.27;58.32;101519.44;4985843;28;20030;-71
2022/06/26 11:23:29;;;;;;;7.75;2.63;;;;;;;23.14;55.33;101521.91;4979210;28;20050;-70
2022/06/26 11:25:57;;;;;;;3.78;2.60;;;;;;;23.27;58.32;101513.00;4992966;28;20042;-70
2022/06/26 11:28:34;;;;;;;6.45;2.53;;;;;;;23.20;56.19;101507.31;5002958;28;20059;-71
2022/06/26 11:31:03;;;;;;;6.03;2.95;;;;;;;23.24;54.87;101505.91;4987634;28;20034;-70
2022/06/26 11:33:31;;;;;;;4.65;2.53;;;;;;;23.26;54.53;101512.13;4986842;28;20042;-70
2022/06/26 11:36:03;;;;;;;7.45;2.53;;;;;;;23.11;56.14;101503.69;4986352;28;20043;-71